sensor_id;sensor_type;location;lat;lon;timestamp;P1;durP1;ratioP1;P2;durP2;ratioP2
6840;SDS011;3458;53.678;14.080;2023-07-29T00:00:40;2.00;;;1.90;;
6840;SDS011;3458;53.678;14.080;2023-07-29T00:03:05;1.53;;;1.43;;
6840;SDS011;3458;53.678;14.080;2023-07-29T00:05:31;1.90;;;1.80;;
6840;SDS011;3458;53.678;14.080;2023-07-29T00:07:56;2.70;;;2.50;;
6840;SDS011;3458;53.678;14.080;2023-07-29T00:10:22;2.17;;;2.00;;
6840;SDS011;3458;53.678;14.080;2023-07-29T00:12:47;2.00;;;1.80;;
6840;SDS011;3458;53.678;14.080;2023-07-29T00:15:13;2.10;;;2.00;;
6840;SDS011;3458;53.678;14.080;2023-07-29T00:17:39;2.10;;;1.90;;
6840;SDS011;3458;53.678;14.080;2023-07-29T00:20:05;3.63;;;1.97;;
6840;SDS011;3458;53.678;14.080;2023-07-29T00:22:32;1.83;;;1.73;;
6840;SDS011;3458;53.678;14.080;2023-07-29T00:24:58;1.77;;;1.67;;
6840;SDS011;3458;53.678;14.080;2023-07-29T00:27:24;5.60;;;2.30;;
6840;SDS011;3458;53.678;14.080;2023-07-29T00:29:50;2.53;;;2.27;;
6840;SDS011;3458;53.678;14.080;2023-07-29T00:32:15;2.97;;;2.77;;
6840;SDS011;3458;53.678;14.080;2023-07-29T00:34:41;2.30;;;2.10;;
6840;SDS011;3458;53.678;14.080;2023-07-29T00:37:06;4.83;;;2.87;;
6840;SDS011;3458;53.678;14.080;2023-07-29T00:39:32;2.40;;;2.20;;
6840;SDS011;3458;53.678;14.080;2023-07-29T00:41:58;2.43;;;2.23;;
6840;SDS011;3458;53.678;14.080;2023-07-29T00:44:24;2.60;;;2.40;;
6840;SDS011;3458;53.678;14.080;2023-07-29T00:46:50;2.83;;;2.53;;
6840;SDS011;3458;53.678;14.080;2023-07-29T00:49:19;2.83;;;2.50;;
6840;SDS011;3458;53.678;14.080;2023-07-29T00:51:45;2.37;;;2.17;;
6840;SDS011;3458;53.678;14.080;2023-07-29T00:54:11;3.07;;;2.67;;
6840;SDS011;3458;53.678;14.080;2023-07-29T00:56:37;3.20;;;2.80;;
6840;SDS011;3458;53.678;14.080;2023-07-29T00:59:03;2.67;;;2.47;;
6840;SDS011;3458;53.678;14.080;2023-07-29T01:01:29;5.20;;;3.07;;
6840;SDS011;3458;53.678;14.080;2023-07-29T01:03:55;2.90;;;2.53;;
6840;SDS011;3458;53.678;14.080;2023-07-29T01:12:09;2.83;;;2.63;;
6840;SDS011;3458;53.678;14.080;2023-07-29T01:14:46;4.93;;;3.10;;
6840;SDS011;3458;53.678;14.080;2023-07-29T01:17:30;3.40;;;2.70;;
6840;SDS011;3458;53.678;14.080;2023-07-29T01:20:04;3.10;;;2.80;;
6840;SDS011;3458;53.678;14.080;2023-07-29T01:22:35;2.87;;;2.57;;
6840;SDS011;3458;53.678;14.080;2023-07-29T01:25:02;3.60;;;3.13;;
6840;SDS011;3458;53.678;14.080;2023-07-29T01:27:28;4.70;;;3.03;;
6840;SDS011;3458;53.678;14.080;2023-07-29T01:29:54;4.43;;;3.90;;
6840;SDS011;3458;53.678;14.080;2023-07-29T01:32:24;5.57;;;3.80;;
6840;SDS011;3458;53.678;14.080;2023-07-29T01:35:00;3.40;;;3.10;;
6840;SDS011;3458;53.678;14.080;2023-07-29T01:37:33;4.80;;;3.60;;
6840;SDS011;3458;53.678;14.080;2023-07-29T01:40:05;4.20;;;3.60;;
6840;SDS011;3458;53.678;14.080;2023-07-29T01:42:33;4.83;;;4.30;;
6840;SDS011;3458;53.678;14.080;2023-07-29T01:44:59;13.57;;;4.47;;
6840;SDS011;3458;53.678;14.080;2023-07-29T01:47:25;5.00;;;4.10;;
6840;SDS011;3458;53.678;14.080;2023-07-29T01:49:50;8.73;;;3.77;;
6840;SDS011;3458;53.678;14.080;2023-07-29T01:52:16;5.27;;;4.43;;
6840;SDS011;3458;53.678;14.080;2023-07-29T01:54:41;6.20;;;4.53;;
6840;SDS011;3458;53.678;14.080;2023-07-29T01:57:07;6.03;;;4.93;;
6840;SDS011;3458;53.678;14.080;2023-07-29T01:59:32;5.60;;;4.23;;
6840;SDS011;3458;53.678;14.080;2023-07-29T02:01:58;6.30;;;4.67;;
6840;SDS011;3458;53.678;14.080;2023-07-29T02:04:23;7.67;;;4.93;;
6840;SDS011;3458;53.678;14.080;2023-07-29T02:06:49;5.97;;;5.17;;
6840;SDS011;3458;53.678;14.080;2023-07-29T02:09:14;5.43;;;4.43;;
6840;SDS011;3458;53.678;14.080;2023-07-29T02:11:40;7.13;;;5.00;;
6840;SDS011;3458;53.678;14.080;2023-07-29T02:14:05;5.93;;;4.60;;
6840;SDS011;3458;53.678;14.080;2023-07-29T02:16:31;6.23;;;3.80;;
6840;SDS011;3458;53.678;14.080;2023-07-29T02:18:57;4.20;;;3.80;;
6840;SDS011;3458;53.678;14.080;2023-07-29T02:21:23;4.00;;;3.50;;
6840;SDS011;3458;53.678;14.080;2023-07-29T02:23:48;6.03;;;3.53;;
6840;SDS011;3458;53.678;14.080;2023-07-29T02:26:14;4.80;;;3.83;;
6840;SDS011;3458;53.678;14.080;2023-07-29T02:28:39;4.03;;;3.63;;
6840;SDS011;3458;53.678;14.080;2023-07-29T02:33:39;4.03;;;3.73;;
6840;SDS011;3458;53.678;14.080;2023-07-29T02:36:05;5.07;;;4.57;;
6840;SDS011;3458;53.678;14.080;2023-07-29T02:38:30;6.20;;;3.80;;
6840;SDS011;3458;53.678;14.080;2023-07-29T02:40:55;11.13;;;4.47;;
6840;SDS011;3458;53.678;14.080;2023-07-29T02:43:21;6.67;;;3.90;;
6840;SDS011;3458;53.678;14.080;2023-07-29T02:45:46;6.13;;;5.00;;
6840;SDS011;3458;53.678;14.080;2023-07-29T02:48:12;6.33;;;4.83;;
6840;SDS011;3458;53.678;14.080;2023-07-29T02:50:37;5.47;;;4.70;;
6840;SDS011;3458;53.678;14.080;2023-07-29T02:53:03;6.83;;;4.77;;
6840;SDS011;3458;53.678;14.080;2023-07-29T02:55:28;6.50;;;5.00;;
6840;SDS011;3458;53.678;14.080;2023-07-29T02:57:54;4.83;;;4.20;;
6840;SDS011;3458;53.678;14.080;2023-07-29T03:00:19;6.73;;;5.27;;
6840;SDS011;3458;53.678;14.080;2023-07-29T03:02:45;10.30;;;6.83;;
6840;SDS011;3458;53.678;14.080;2023-07-29T03:05:11;6.93;;;5.73;;
6840;SDS011;3458;53.678;14.080;2023-07-29T03:07:36;7.50;;;5.20;;
6840;SDS011;3458;53.678;14.080;2023-07-29T03:10:01;7.40;;;4.70;;
6840;SDS011;3458;53.678;14.080;2023-07-29T03:12:27;8.33;;;5.73;;
6840;SDS011;3458;53.678;14.080;2023-07-29T03:14:53;6.67;;;5.60;;
6840;SDS011;3458;53.678;14.080;2023-07-29T03:17:18;6.77;;;5.67;;
6840;SDS011;3458;53.678;14.080;2023-07-29T03:19:43;8.73;;;5.80;;
6840;SDS011;3458;53.678;14.080;2023-07-29T03:22:09;7.60;;;5.60;;
6840;SDS011;3458;53.678;14.080;2023-07-29T03:24:34;7.60;;;5.83;;
6840;SDS011;3458;53.678;14.080;2023-07-29T03:27:00;7.20;;;5.87;;
6840;SDS011;3458;53.678;14.080;2023-07-29T03:29:25;8.07;;;5.90;;
6840;SDS011;3458;53.678;14.080;2023-07-29T03:31:51;9.07;;;5.97;;
6840;SDS011;3458;53.678;14.080;2023-07-29T03:34:17;6.17;;;5.57;;
6840;SDS011;3458;53.678;14.080;2023-07-29T03:36:42;7.27;;;5.50;;
6840;SDS011;3458;53.678;14.080;2023-07-29T03:39:08;8.97;;;5.40;;
6840;SDS011;3458;53.678;14.080;2023-07-29T03:41:33;7.93;;;6.50;;
6840;SDS011;3458;53.678;14.080;2023-07-29T03:43:59;6.47;;;5.70;;
6840;SDS011;3458;53.678;14.080;2023-07-29T03:46:24;7.23;;;5.63;;
6840;SDS011;3458;53.678;14.080;2023-07-29T03:48:50;4.80;;;4.30;;
6840;SDS011;3458;53.678;14.080;2023-07-29T03:51:15;5.00;;;4.43;;
6840;SDS011;3458;53.678;14.080;2023-07-29T03:53:41;7.43;;;4.90;;
6840;SDS011;3458;53.678;14.080;2023-07-29T03:56:06;6.33;;;5.27;;
6840;SDS011;3458;53.678;14.080;2023-07-29T03:58:32;14.50;;;6.27;;
6840;SDS011;3458;53.678;14.080;2023-07-29T04:00:58;6.27;;;5.00;;
6840;SDS011;3458;53.678;14.080;2023-07-29T04:03:23;8.10;;;5.60;;
6840;SDS011;3458;53.678;14.080;2023-07-29T04:05:49;5.60;;;5.10;;
6840;SDS011;3458;53.678;14.080;2023-07-29T04:08:15;7.80;;;5.77;;
6840;SDS011;3458;53.678;14.080;2023-07-29T04:10:40;6.17;;;5.17;;
6840;SDS011;3458;53.678;14.080;2023-07-29T04:13:06;7.17;;;6.03;;
6840;SDS011;3458;53.678;14.080;2023-07-29T04:15:31;6.73;;;5.60;;
6840;SDS011;3458;53.678;14.080;2023-07-29T04:17:57;7.57;;;5.70;;
6840;SDS011;3458;53.678;14.080;2023-07-29T04:20:22;8.23;;;5.93;;
6840;SDS011;3458;53.678;14.080;2023-07-29T04:22:48;16.73;;;6.70;;
6840;SDS011;3458;53.678;14.080;2023-07-29T04:25:13;10.00;;;5.73;;
6840;SDS011;3458;53.678;14.080;2023-07-29T04:27:38;10.30;;;5.60;;
6840;SDS011;3458;53.678;14.080;2023-07-29T04:30:04;7.30;;;6.33;;
6840;SDS011;3458;53.678;14.080;2023-07-29T04:32:30;9.03;;;6.83;;
6840;SDS011;3458;53.678;14.080;2023-07-29T04:34:56;6.07;;;5.40;;
6840;SDS011;3458;53.678;14.080;2023-07-29T04:37:21;8.53;;;6.20;;
6840;SDS011;3458;53.678;14.080;2023-07-29T04:39:47;7.37;;;6.30;;
6840;SDS011;3458;53.678;14.080;2023-07-29T04:42:12;7.17;;;5.60;;
6840;SDS011;3458;53.678;14.080;2023-07-29T04:44:38;11.10;;;8.17;;
6840;SDS011;3458;53.678;14.080;2023-07-29T04:47:03;6.60;;;5.90;;
6840;SDS011;3458;53.678;14.080;2023-07-29T04:49:29;11.30;;;8.60;;
6840;SDS011;3458;53.678;14.080;2023-07-29T04:51:54;7.20;;;6.50;;
6840;SDS011;3458;53.678;14.080;2023-07-29T04:54:20;6.53;;;5.30;;
6840;SDS011;3458;53.678;14.080;2023-07-29T04:56:46;6.43;;;5.83;;
6840;SDS011;3458;53.678;14.080;2023-07-29T04:59:11;6.17;;;5.57;;
6840;SDS011;3458;53.678;14.080;2023-07-29T05:01:38;8.60;;;6.10;;
6840;SDS011;3458;53.678;14.080;2023-07-29T05:04:03;7.90;;;6.20;;
6840;SDS011;3458;53.678;14.080;2023-07-29T05:06:29;7.73;;;6.00;;
6840;SDS011;3458;53.678;14.080;2023-07-29T05:08:56;8.17;;;6.00;;
6840;SDS011;3458;53.678;14.080;2023-07-29T05:11:22;9.30;;;5.83;;
6840;SDS011;3458;53.678;14.080;2023-07-29T05:13:50;8.63;;;5.87;;
6840;SDS011;3458;53.678;14.080;2023-07-29T05:16:15;12.90;;;7.10;;
6840;SDS011;3458;53.678;14.080;2023-07-29T05:18:41;9.17;;;5.70;;
6840;SDS011;3458;53.678;14.080;2023-07-29T05:21:06;9.00;;;6.50;;
6840;SDS011;3458;53.678;14.080;2023-07-29T05:23:33;8.80;;;5.80;;
6840;SDS011;3458;53.678;14.080;2023-07-29T05:25:58;10.70;;;6.30;;
6840;SDS011;3458;53.678;14.080;2023-07-29T05:28:24;6.30;;;5.50;;
6840;SDS011;3458;53.678;14.080;2023-07-29T05:30:50;7.07;;;6.23;;
6840;SDS011;3458;53.678;14.080;2023-07-29T05:33:15;6.40;;;5.70;;
6840;SDS011;3458;53.678;14.080;2023-07-29T05:35:41;8.87;;;6.80;;
6840;SDS011;3458;53.678;14.080;2023-07-29T05:38:06;7.20;;;5.90;;
6840;SDS011;3458;53.678;14.080;2023-07-29T05:40:33;8.87;;;6.40;;
6840;SDS011;3458;53.678;14.080;2023-07-29T05:42:58;11.10;;;7.27;;
6840;SDS011;3458;53.678;14.080;2023-07-29T05:45:24;8.20;;;6.43;;
6840;SDS011;3458;53.678;14.080;2023-07-29T05:47:50;7.50;;;6.53;;
6840;SDS011;3458;53.678;14.080;2023-07-29T05:50:15;8.20;;;5.47;;
6840;SDS011;3458;53.678;14.080;2023-07-29T05:52:41;9.53;;;6.50;;
6840;SDS011;3458;53.678;14.080;2023-07-29T05:55:06;10.33;;;7.23;;
6840;SDS011;3458;53.678;14.080;2023-07-29T05:57:32;7.20;;;6.37;;
6840;SDS011;3458;53.678;14.080;2023-07-29T05:59:57;7.10;;;6.40;;
6840;SDS011;3458;53.678;14.080;2023-07-29T06:02:23;12.13;;;6.20;;
6840;SDS011;3458;53.678;14.080;2023-07-29T06:04:49;9.10;;;6.20;;
6840;SDS011;3458;53.678;14.080;2023-07-29T06:07:14;8.70;;;6.50;;
6840;SDS011;3458;53.678;14.080;2023-07-29T06:09:40;8.50;;;6.03;;
6840;SDS011;3458;53.678;14.080;2023-07-29T06:12:05;8.57;;;7.30;;
6840;SDS011;3458;53.678;14.080;2023-07-29T06:14:31;8.60;;;6.30;;
6840;SDS011;3458;53.678;14.080;2023-07-29T06:16:57;7.80;;;6.30;;
6840;SDS011;3458;53.678;14.080;2023-07-29T06:19:22;8.27;;;6.13;;
6840;SDS011;3458;53.678;14.080;2023-07-29T06:21:48;7.60;;;6.57;;
6840;SDS011;3458;53.678;14.080;2023-07-29T06:24:13;17.60;;;7.47;;
6840;SDS011;3458;53.678;14.080;2023-07-29T06:26:39;12.80;;;6.07;;
6840;SDS011;3458;53.678;14.080;2023-07-29T06:29:04;6.73;;;5.63;;
6840;SDS011;3458;53.678;14.080;2023-07-29T06:31:30;6.67;;;5.87;;
6840;SDS011;3458;53.678;14.080;2023-07-29T06:33:57;8.03;;;6.10;;
6840;SDS011;3458;53.678;14.080;2023-07-29T06:36:23;11.27;;;6.77;;
6840;SDS011;3458;53.678;14.080;2023-07-29T06:38:48;9.17;;;6.57;;
6840;SDS011;3458;53.678;14.080;2023-07-29T06:41:14;13.17;;;7.67;;
6840;SDS011;3458;53.678;14.080;2023-07-29T06:43:39;10.40;;;7.80;;
6840;SDS011;3458;53.678;14.080;2023-07-29T06:46:05;8.37;;;5.73;;
6840;SDS011;3458;53.678;14.080;2023-07-29T06:48:30;9.90;;;6.63;;
6840;SDS011;3458;53.678;14.080;2023-07-29T06:50:56;9.40;;;6.57;;
6840;SDS011;3458;53.678;14.080;2023-07-29T06:53:25;9.67;;;6.70;;
6840;SDS011;3458;53.678;14.080;2023-07-29T06:55:51;12.43;;;6.30;;
6840;SDS011;3458;53.678;14.080;2023-07-29T06:58:16;7.70;;;5.90;;
6840;SDS011;3458;53.678;14.080;2023-07-29T07:00:42;6.70;;;5.90;;
6840;SDS011;3458;53.678;14.080;2023-07-29T07:03:07;5.90;;;5.30;;
6840;SDS011;3458;53.678;14.080;2023-07-29T07:05:33;7.20;;;6.50;;
6840;SDS011;3458;53.678;14.080;2023-07-29T07:07:58;7.40;;;5.97;;
6840;SDS011;3458;53.678;14.080;2023-07-29T07:10:24;5.90;;;5.27;;
6840;SDS011;3458;53.678;14.080;2023-07-29T07:12:49;7.23;;;5.40;;
6840;SDS011;3458;53.678;14.080;2023-07-29T07:15:15;8.77;;;5.30;;
6840;SDS011;3458;53.678;14.080;2023-07-29T07:17:41;5.53;;;5.00;;
6840;SDS011;3458;53.678;14.080;2023-07-29T07:20:06;5.17;;;4.67;;
6840;SDS011;3458;53.678;14.080;2023-07-29T07:22:32;5.47;;;4.03;;
6840;SDS011;3458;53.678;14.080;2023-07-29T07:24:57;5.97;;;4.80;;
6840;SDS011;3458;53.678;14.080;2023-07-29T07:27:23;6.33;;;4.67;;
6840;SDS011;3458;53.678;14.080;2023-07-29T07:29:48;7.33;;;4.70;;
6840;SDS011;3458;53.678;14.080;2023-07-29T07:32:14;6.03;;;4.20;;
6840;SDS011;3458;53.678;14.080;2023-07-29T07:34:39;5.67;;;4.87;;
6840;SDS011;3458;53.678;14.080;2023-07-29T07:37:05;6.10;;;4.60;;
6840;SDS011;3458;53.678;14.080;2023-07-29T07:39:31;4.80;;;4.30;;
6840;SDS011;3458;53.678;14.080;2023-07-29T07:41:57;4.47;;;4.03;;
6840;SDS011;3458;53.678;14.080;2023-07-29T07:44:22;3.50;;;3.20;;
6840;SDS011;3458;53.678;14.080;2023-07-29T07:46:48;4.93;;;4.43;;
6840;SDS011;3458;53.678;14.080;2023-07-29T07:49:13;5.30;;;4.80;;
6840;SDS011;3458;53.678;14.080;2023-07-29T07:51:39;3.70;;;3.40;;
6840;SDS011;3458;53.678;14.080;2023-07-29T07:54:04;4.50;;;3.43;;
6840;SDS011;3458;53.678;14.080;2023-07-29T07:56:30;2.83;;;2.63;;
6840;SDS011;3458;53.678;14.080;2023-07-29T07:58:55;3.00;;;2.10;;
6840;SDS011;3458;53.678;14.080;2023-07-29T08:01:21;3.90;;;2.47;;
6840;SDS011;3458;53.678;14.080;2023-07-29T08:03:46;3.43;;;3.07;;
6840;SDS011;3458;53.678;14.080;2023-07-29T08:06:12;2.70;;;2.50;;
6840;SDS011;3458;53.678;14.080;2023-07-29T08:08:37;2.33;;;2.20;;
6840;SDS011;3458;53.678;14.080;2023-07-29T08:11:03;3.10;;;2.80;;
6840;SDS011;3458;53.678;14.080;2023-07-29T08:13:28;2.80;;;2.40;;
6840;SDS011;3458;53.678;14.080;2023-07-29T08:15:54;4.57;;;2.67;;
6840;SDS011;3458;53.678;14.080;2023-07-29T08:18:19;2.57;;;2.37;;
6840;SDS011;3458;53.678;14.080;2023-07-29T08:20:52;2.27;;;2.10;;
6840;SDS011;3458;53.678;14.080;2023-07-29T08:23:19;3.10;;;2.37;;
6840;SDS011;3458;53.678;14.080;2023-07-29T08:25:49;2.33;;;2.20;;
6840;SDS011;3458;53.678;14.080;2023-07-29T08:28:18;5.87;;;2.77;;
6840;SDS011;3458;53.678;14.080;2023-07-29T08:30:43;3.83;;;3.03;;
6840;SDS011;3458;53.678;14.080;2023-07-29T08:33:09;2.57;;;2.37;;
6840;SDS011;3458;53.678;14.080;2023-07-29T08:35:34;2.10;;;2.00;;
6840;SDS011;3458;53.678;14.080;2023-07-29T08:38:00;2.80;;;2.60;;
6840;SDS011;3458;53.678;14.080;2023-07-29T08:40:27;2.37;;;2.23;;
6840;SDS011;3458;53.678;14.080;2023-07-29T08:42:54;3.20;;;3.00;;
6840;SDS011;3458;53.678;14.080;2023-07-29T08:45:23;2.90;;;2.37;;
6840;SDS011;3458;53.678;14.080;2023-07-29T08:47:49;2.47;;;2.27;;
6840;SDS011;3458;53.678;14.080;2023-07-29T08:50:19;2.67;;;2.47;;
6840;SDS011;3458;53.678;14.080;2023-07-29T08:52:45;2.70;;;2.50;;
6840;SDS011;3458;53.678;14.080;2023-07-29T08:55:11;3.13;;;2.67;;
6840;SDS011;3458;53.678;14.080;2023-07-29T08:57:37;2.67;;;2.40;;
6840;SDS011;3458;53.678;14.080;2023-07-29T09:00:03;3.63;;;2.60;;
6840;SDS011;3458;53.678;14.080;2023-07-29T09:02:29;2.63;;;2.43;;
6840;SDS011;3458;53.678;14.080;2023-07-29T09:04:54;2.30;;;2.10;;
6840;SDS011;3458;53.678;14.080;2023-07-29T09:07:20;2.83;;;2.57;;
6840;SDS011;3458;53.678;14.080;2023-07-29T09:09:45;3.73;;;2.70;;
6840;SDS011;3458;53.678;14.080;2023-07-29T09:12:11;2.67;;;2.47;;
6840;SDS011;3458;53.678;14.080;2023-07-29T09:14:36;2.43;;;2.33;;
6840;SDS011;3458;53.678;14.080;2023-07-29T09:17:02;2.70;;;2.50;;
6840;SDS011;3458;53.678;14.080;2023-07-29T09:19:32;3.27;;;2.97;;
6840;SDS011;3458;53.678;14.080;2023-07-29T09:21:58;2.70;;;2.50;;
6840;SDS011;3458;53.678;14.080;2023-07-29T09:24:24;2.87;;;2.67;;
6840;SDS011;3458;53.678;14.080;2023-07-29T09:26:50;2.73;;;2.53;;
6840;SDS011;3458;53.678;14.080;2023-07-29T09:29:21;2.83;;;2.57;;
6840;SDS011;3458;53.678;14.080;2023-07-29T09:31:48;2.97;;;2.77;;
6840;SDS011;3458;53.678;14.080;2023-07-29T09:34:14;4.93;;;2.73;;
6840;SDS011;3458;53.678;14.080;2023-07-29T09:36:41;3.70;;;3.40;;
6840;SDS011;3458;53.678;14.080;2023-07-29T09:39:10;3.57;;;2.80;;
6840;SDS011;3458;53.678;14.080;2023-07-29T09:41:37;3.00;;;2.70;;
6840;SDS011;3458;53.678;14.080;2023-07-29T09:44:03;2.60;;;2.40;;
6840;SDS011;3458;53.678;14.080;2023-07-29T09:46:35;2.90;;;2.70;;
6840;SDS011;3458;53.678;14.080;2023-07-29T09:49:02;2.70;;;2.50;;
6840;SDS011;3458;53.678;14.080;2023-07-29T09:51:32;2.90;;;2.60;;
6840;SDS011;3458;53.678;14.080;2023-07-29T09:54:02;3.40;;;2.90;;
6840;SDS011;3458;53.678;14.080;2023-07-29T09:56:28;2.23;;;2.13;;
6840;SDS011;3458;53.678;14.080;2023-07-29T09:58:57;3.37;;;2.30;;
6840;SDS011;3458;53.678;14.080;2023-07-29T10:01:23;5.60;;;4.23;;
6840;SDS011;3458;53.678;14.080;2023-07-29T10:03:49;7.63;;;2.40;;
6840;SDS011;3458;53.678;14.080;2023-07-29T10:06:15;3.00;;;2.77;;
6840;SDS011;3458;53.678;14.080;2023-07-29T10:08:40;3.30;;;3.00;;
6840;SDS011;3458;53.678;14.080;2023-07-29T10:11:08;2.30;;;2.20;;
6840;SDS011;3458;53.678;14.080;2023-07-29T10:13:35;2.80;;;2.30;;
6840;SDS011;3458;53.678;14.080;2023-07-29T10:16:01;6.83;;;5.27;;
6840;SDS011;3458;53.678;14.080;2023-07-29T10:18:28;6.27;;;3.60;;
6840;SDS011;3458;53.678;14.080;2023-07-29T10:20:54;2.53;;;2.37;;
6840;SDS011;3458;53.678;14.080;2023-07-29T10:23:22;5.57;;;3.27;;
6840;SDS011;3458;53.678;14.080;2023-07-29T10:25:55;2.93;;;2.73;;
6840;SDS011;3458;53.678;14.080;2023-07-29T10:28:27;4.27;;;3.10;;
6840;SDS011;3458;53.678;14.080;2023-07-29T10:30:57;3.23;;;2.90;;
6840;SDS011;3458;53.678;14.080;2023-07-29T10:33:24;3.13;;;2.80;;
6840;SDS011;3458;53.678;14.080;2023-07-29T10:35:50;3.60;;;3.30;;
6840;SDS011;3458;53.678;14.080;2023-07-29T10:38:18;7.63;;;3.10;;
6840;SDS011;3458;53.678;14.080;2023-07-29T10:40:46;4.10;;;3.10;;
6840;SDS011;3458;53.678;14.080;2023-07-29T10:43:31;6.20;;;2.83;;
6840;SDS011;3458;53.678;14.080;2023-07-29T10:46:14;4.00;;;3.10;;
6840;SDS011;3458;53.678;14.080;2023-07-29T10:48:41;3.70;;;3.40;;
6840;SDS011;3458;53.678;14.080;2023-07-29T10:56:47;4.30;;;3.40;;
6840;SDS011;3458;53.678;14.080;2023-07-29T11:01:42;3.13;;;2.80;;
6840;SDS011;3458;53.678;14.080;2023-07-29T11:12:34;5.33;;;4.17;;
6840;SDS011;3458;53.678;14.080;2023-07-29T11:17:37;7.43;;;4.60;;
6840;SDS011;3458;53.678;14.080;2023-07-29T11:20:04;5.23;;;4.27;;
6840;SDS011;3458;53.678;14.080;2023-07-29T11:22:32;6.47;;;4.73;;
6840;SDS011;3458;53.678;14.080;2023-07-29T11:24:57;5.70;;;4.57;;
6840;SDS011;3458;53.678;14.080;2023-07-29T11:27:23;9.43;;;4.30;;
6840;SDS011;3458;53.678;14.080;2023-07-29T11:29:49;10.83;;;5.53;;
6840;SDS011;3458;53.678;14.080;2023-07-29T11:32:15;5.53;;;5.03;;
6840;SDS011;3458;53.678;14.080;2023-07-29T11:34:41;8.00;;;4.57;;
6840;SDS011;3458;53.678;14.080;2023-07-29T11:37:09;5.33;;;4.80;;
6840;SDS011;3458;53.678;14.080;2023-07-29T11:39:42;6.37;;;5.27;;
6840;SDS011;3458;53.678;14.080;2023-07-29T11:42:12;43.37;;;5.27;;
6840;SDS011;3458;53.678;14.080;2023-07-29T11:44:38;7.00;;;5.43;;
6840;SDS011;3458;53.678;14.080;2023-07-29T11:47:07;6.93;;;5.10;;
6840;SDS011;3458;53.678;14.080;2023-07-29T11:49:33;10.37;;;5.07;;
6840;SDS011;3458;53.678;14.080;2023-07-29T11:52:00;5.33;;;4.30;;
6840;SDS011;3458;53.678;14.080;2023-07-29T11:54:27;6.13;;;3.87;;
6840;SDS011;3458;53.678;14.080;2023-07-29T11:56:53;6.60;;;4.30;;
6840;SDS011;3458;53.678;14.080;2023-07-29T11:59:19;8.10;;;4.80;;
6840;SDS011;3458;53.678;14.080;2023-07-29T12:01:45;4.23;;;3.60;;
6840;SDS011;3458;53.678;14.080;2023-07-29T12:04:10;3.83;;;3.30;;
6840;SDS011;3458;53.678;14.080;2023-07-29T12:06:38;4.30;;;3.57;;
6840;SDS011;3458;53.678;14.080;2023-07-29T12:09:04;3.83;;;3.53;;
6840;SDS011;3458;53.678;14.080;2023-07-29T12:11:30;3.57;;;3.00;;
6840;SDS011;3458;53.678;14.080;2023-07-29T12:13:57;4.30;;;3.60;;
6840;SDS011;3458;53.678;14.080;2023-07-29T12:16:24;3.53;;;3.07;;
6840;SDS011;3458;53.678;14.080;2023-07-29T12:18:50;3.20;;;2.93;;
6840;SDS011;3458;53.678;14.080;2023-07-29T12:21:16;5.50;;;3.80;;
6840;SDS011;3458;53.678;14.080;2023-07-29T12:23:43;3.83;;;3.40;;
6840;SDS011;3458;53.678;14.080;2023-07-29T12:26:09;9.13;;;3.53;;
6840;SDS011;3458;53.678;14.080;2023-07-29T12:28:34;4.20;;;3.73;;
6840;SDS011;3458;53.678;14.080;2023-07-29T12:31:00;8.23;;;4.30;;
6840;SDS011;3458;53.678;14.080;2023-07-29T12:33:29;4.43;;;4.03;;
6840;SDS011;3458;53.678;14.080;2023-07-29T12:35:58;6.57;;;4.20;;
6840;SDS011;3458;53.678;14.080;2023-07-29T12:38:27;6.43;;;4.40;;
6840;SDS011;3458;53.678;14.080;2023-07-29T12:40:53;6.73;;;5.00;;
6840;SDS011;3458;53.678;14.080;2023-07-29T12:43:19;8.83;;;4.40;;
6840;SDS011;3458;53.678;14.080;2023-07-29T12:45:45;7.00;;;4.70;;
6840;SDS011;3458;53.678;14.080;2023-07-29T12:48:11;5.27;;;4.77;;
6840;SDS011;3458;53.678;14.080;2023-07-29T12:50:37;5.87;;;4.30;;
6840;SDS011;3458;53.678;14.080;2023-07-29T12:53:04;5.10;;;4.60;;
6840;SDS011;3458;53.678;14.080;2023-07-29T12:55:30;6.10;;;4.70;;
6840;SDS011;3458;53.678;14.080;2023-07-29T12:57:55;4.27;;;3.77;;
6840;SDS011;3458;53.678;14.080;2023-07-29T13:00:23;4.40;;;4.00;;
6840;SDS011;3458;53.678;14.080;2023-07-29T13:02:48;4.53;;;4.10;;
6840;SDS011;3458;53.678;14.080;2023-07-29T13:05:14;5.87;;;4.37;;
6840;SDS011;3458;53.678;14.080;2023-07-29T13:07:39;5.23;;;4.00;;
6840;SDS011;3458;53.678;14.080;2023-07-29T13:10:05;6.90;;;3.63;;
6840;SDS011;3458;53.678;14.080;2023-07-29T13:12:31;4.73;;;4.20;;
6840;SDS011;3458;53.678;14.080;2023-07-29T13:14:57;5.30;;;4.80;;
6840;SDS011;3458;53.678;14.080;2023-07-29T13:17:22;7.27;;;5.00;;
6840;SDS011;3458;53.678;14.080;2023-07-29T13:19:48;5.63;;;4.50;;
6840;SDS011;3458;53.678;14.080;2023-07-29T13:22:14;4.90;;;3.87;;
6840;SDS011;3458;53.678;14.080;2023-07-29T13:24:39;5.23;;;3.90;;
6840;SDS011;3458;53.678;14.080;2023-07-29T13:27:08;7.60;;;5.00;;
6840;SDS011;3458;53.678;14.080;2023-07-29T13:29:33;5.27;;;4.60;;
6840;SDS011;3458;53.678;14.080;2023-07-29T13:31:59;6.47;;;3.93;;
6840;SDS011;3458;53.678;14.080;2023-07-29T13:34:24;4.27;;;3.87;;
6840;SDS011;3458;53.678;14.080;2023-07-29T13:36:50;5.23;;;3.60;;
6840;SDS011;3458;53.678;14.080;2023-07-29T13:39:15;4.00;;;3.53;;
6840;SDS011;3458;53.678;14.080;2023-07-29T13:41:41;5.87;;;4.00;;
6840;SDS011;3458;53.678;14.080;2023-07-29T13:44:07;12.07;;;4.23;;
6840;SDS011;3458;53.678;14.080;2023-07-29T13:46:32;4.23;;;3.83;;
6840;SDS011;3458;53.678;14.080;2023-07-29T13:48:57;4.40;;;3.40;;
6840;SDS011;3458;53.678;14.080;2023-07-29T13:51:23;6.83;;;3.67;;
6840;SDS011;3458;53.678;14.080;2023-07-29T13:53:49;5.50;;;4.17;;
6840;SDS011;3458;53.678;14.080;2023-07-29T13:56:14;6.17;;;4.17;;
6840;SDS011;3458;53.678;14.080;2023-07-29T13:58:40;5.37;;;4.40;;
6840;SDS011;3458;53.678;14.080;2023-07-29T14:01:05;6.20;;;3.50;;
6840;SDS011;3458;53.678;14.080;2023-07-29T14:03:31;12.43;;;3.87;;
6840;SDS011;3458;53.678;14.080;2023-07-29T14:05:56;4.23;;;3.83;;
6840;SDS011;3458;53.678;14.080;2023-07-29T14:08:22;3.87;;;3.47;;
6840;SDS011;3458;53.678;14.080;2023-07-29T14:10:50;3.77;;;3.40;;
6840;SDS011;3458;53.678;14.080;2023-07-29T14:13:15;4.33;;;3.77;;
6840;SDS011;3458;53.678;14.080;2023-07-29T14:15:41;6.07;;;4.03;;
6840;SDS011;3458;53.678;14.080;2023-07-29T14:18:06;4.13;;;3.60;;
6840;SDS011;3458;53.678;14.080;2023-07-29T14:20:32;5.50;;;3.80;;
6840;SDS011;3458;53.678;14.080;2023-07-29T14:22:58;4.30;;;3.67;;
6840;SDS011;3458;53.678;14.080;2023-07-29T14:25:23;4.43;;;3.80;;
6840;SDS011;3458;53.678;14.080;2023-07-29T14:27:49;4.20;;;3.60;;
6840;SDS011;3458;53.678;14.080;2023-07-29T14:30:15;7.37;;;4.33;;
6840;SDS011;3458;53.678;14.080;2023-07-29T14:32:40;6.70;;;5.23;;
6840;SDS011;3458;53.678;14.080;2023-07-29T14:35:06;4.30;;;3.87;;
6840;SDS011;3458;53.678;14.080;2023-07-29T14:37:33;5.73;;;4.07;;
6840;SDS011;3458;53.678;14.080;2023-07-29T14:39:58;5.10;;;3.90;;
6840;SDS011;3458;53.678;14.080;2023-07-29T14:42:24;5.00;;;4.50;;
6840;SDS011;3458;53.678;14.080;2023-07-29T14:44:50;4.30;;;3.90;;
6840;SDS011;3458;53.678;14.080;2023-07-29T14:47:15;5.30;;;4.60;;
6840;SDS011;3458;53.678;14.080;2023-07-29T14:49:41;6.43;;;4.03;;
6840;SDS011;3458;53.678;14.080;2023-07-29T14:52:07;4.13;;;3.73;;
6840;SDS011;3458;53.678;14.080;2023-07-29T14:54:32;10.33;;;8.57;;
6840;SDS011;3458;53.678;14.080;2023-07-29T14:56:58;8.70;;;4.37;;
6840;SDS011;3458;53.678;14.080;2023-07-29T14:59:23;5.10;;;4.50;;
6840;SDS011;3458;53.678;14.080;2023-07-29T15:01:49;4.70;;;4.17;;
6840;SDS011;3458;53.678;14.080;2023-07-29T15:04:14;6.60;;;4.50;;
6840;SDS011;3458;53.678;14.080;2023-07-29T15:06:40;5.20;;;4.63;;
6840;SDS011;3458;53.678;14.080;2023-07-29T15:09:05;7.10;;;5.10;;
6840;SDS011;3458;53.678;14.080;2023-07-29T15:11:31;7.20;;;5.13;;
6840;SDS011;3458;53.678;14.080;2023-07-29T15:13:58;5.20;;;4.77;;
6840;SDS011;3458;53.678;14.080;2023-07-29T15:16:24;8.10;;;4.70;;
6840;SDS011;3458;53.678;14.080;2023-07-29T15:18:50;6.17;;;4.57;;
6840;SDS011;3458;53.678;14.080;2023-07-29T15:21:16;4.43;;;4.03;;